Terminal Aerodrome Forecast
Issued by NWS

Home | Current Version | Previous Version | Graphics & Text | Print | Product List | Glossary On
Versions: 1 2 3 4 5 6 7 8 9 10 11 12 13 14 15
000
FTUS43 KMPX 312300 RRA
TAFRWF
TAF
KRWF 312340Z 0100/0124 21008KT 5SM -TSRA SCT040 BKN070CB
      TEMPO 0100/0101 2SM TSRA OVC035CB
     FM010100 24006KT 6SM -SHRA SCT035 BKN060
     FM010300 28011KT P6SM BKN070
     FM010600 30004KT 4SM BR SCT015
      TEMPO 0109/0113 2SM BR BKN012
     FM011600 32011KT P6SM SCT050=

USA.gov is the U.S. government's official web portal to all federal, state and local government web resources and services.